Ana Sayfa
METAR-TAF:

METAR-TAF

Havaalanları :

Kamışlı, Suriye

Kamışlı Havaalanı

Enlem: 37-03N, Boylam: 041-13E, yükseklik: 455 m

Güncel hava durumu gözlemi

Rapor saat 14:00 UTC de 42 dakika önce yapıldı.
Rüzgar kuzeydoğudan 10 kt
Sıcaklık 15°C
Nem 63%
Basınç 1009 hPa
Görüş mesafesi: 8000 m
2600 ft yükseklikte parçalı bulutlu
10000 ft yükseklikte parçalı çok bulutlu

METAR: OSKL 231400Z 04010KT 8000 SCT026 BKN100 15/08 Q1009

Saat: 16:42 (14:42 UTC)


TAF: eksik

4.000'den fazla havaalanı için hava durumu gözlemleri ve tahminleri (METAR ve TAF raporları).

Kullanılabilir istasyonlar harita üzerinde sarı ve kırmızı noktalarla gösterilir.

İstasyonun adını görmek için fareyi noktanın üzerinde gezdirin.

Sonrasında hava gözlem ve tahminlerini görmek için tıklayın.

Haritayı değiştirmek için: yaklaştırmak için siyah artı işaretli yeşil düğmeye ve uzaklaştırmak için de eksi işaretli düğmeye hızla tıklayın; bitişik haritalar için yeşil okları kullanın.


METAR-TAF: